sensor_id;sensor_type;location;lat;lon;timestamp;P1;durP1;ratioP1;P2;durP2;ratioP2
25810;SDS011;13645;52.460;13.910;2022-12-20T00:01:08;45.83;;;21.67;;
25810;SDS011;13645;52.460;13.910;2022-12-20T00:03:37;42.13;;;21.48;;
25810;SDS011;13645;52.460;13.910;2022-12-20T00:06:04;42.08;;;21.38;;
25810;SDS011;13645;52.460;13.910;2022-12-20T00:08:31;41.03;;;21.42;;
25810;SDS011;13645;52.460;13.910;2022-12-20T00:11:00;39.08;;;20.60;;
25810;SDS011;13645;52.460;13.910;2022-12-20T00:13:28;43.22;;;20.92;;
25810;SDS011;13645;52.460;13.910;2022-12-20T00:18:36;39.22;;;19.50;;
25810;SDS011;13645;52.460;13.910;2022-12-20T00:21:05;36.30;;;19.75;;
25810;SDS011;13645;52.460;13.910;2022-12-20T00:23:33;39.97;;;20.13;;
25810;SDS011;13645;52.460;13.910;2022-12-20T00:26:04;36.40;;;18.75;;
25810;SDS011;13645;52.460;13.910;2022-12-20T00:28:33;36.05;;;19.63;;
25810;SDS011;13645;52.460;13.910;2022-12-20T00:31:01;37.33;;;19.38;;
25810;SDS011;13645;52.460;13.910;2022-12-20T00:33:28;32.92;;;18.48;;
25810;SDS011;13645;52.460;13.910;2022-12-20T00:35:55;40.60;;;19.35;;
25810;SDS011;13645;52.460;13.910;2022-12-20T00:38:23;37.40;;;19.20;;
25810;SDS011;13645;52.460;13.910;2022-12-20T00:41:04;31.48;;;18.77;;
25810;SDS011;13645;52.460;13.910;2022-12-20T00:43:34;36.33;;;18.50;;
25810;SDS011;13645;52.460;13.910;2022-12-20T00:46:01;35.42;;;18.85;;
25810;SDS011;13645;52.460;13.910;2022-12-20T00:48:28;32.60;;;18.48;;
25810;SDS011;13645;52.460;13.910;2022-12-20T00:50:59;32.33;;;18.23;;
25810;SDS011;13645;52.460;13.910;2022-12-20T00:53:27;38.42;;;20.13;;
25810;SDS011;13645;52.460;13.910;2022-12-20T00:55:55;33.40;;;18.83;;
25810;SDS011;13645;52.460;13.910;2022-12-20T00:58:22;35.88;;;19.05;;
25810;SDS011;13645;52.460;13.910;2022-12-20T01:00:49;41.00;;;19.75;;
25810;SDS011;13645;52.460;13.910;2022-12-20T01:03:22;33.97;;;17.75;;
25810;SDS011;13645;52.460;13.910;2022-12-20T01:05:52;34.85;;;18.65;;
25810;SDS011;13645;52.460;13.910;2022-12-20T01:08:22;33.60;;;19.05;;
25810;SDS011;13645;52.460;13.910;2022-12-20T01:13:26;35.45;;;18.52;;
25810;SDS011;13645;52.460;13.910;2022-12-20T01:15:53;33.70;;;17.63;;
25810;SDS011;13645;52.460;13.910;2022-12-20T01:18:21;33.70;;;17.98;;
25810;SDS011;13645;52.460;13.910;2022-12-20T01:20:48;32.60;;;17.48;;
25810;SDS011;13645;52.460;13.910;2022-12-20T01:23:15;32.78;;;17.35;;
25810;SDS011;13645;52.460;13.910;2022-12-20T01:25:42;30.85;;;17.35;;
25810;SDS011;13645;52.460;13.910;2022-12-20T01:28:08;31.77;;;17.85;;
25810;SDS011;13645;52.460;13.910;2022-12-20T01:30:38;29.80;;;16.58;;
25810;SDS011;13645;52.460;13.910;2022-12-20T01:33:05;34.08;;;18.02;;
25810;SDS011;13645;52.460;13.910;2022-12-20T01:35:32;31.30;;;17.17;;
25810;SDS011;13645;52.460;13.910;2022-12-20T01:37:59;31.60;;;17.23;;
25810;SDS011;13645;52.460;13.910;2022-12-20T01:40:26;35.97;;;17.73;;
25810;SDS011;13645;52.460;13.910;2022-12-20T01:42:53;34.47;;;17.33;;
25810;SDS011;13645;52.460;13.910;2022-12-20T01:45:22;31.35;;;17.80;;
25810;SDS011;13645;52.460;13.910;2022-12-20T01:47:54;34.05;;;18.00;;
25810;SDS011;13645;52.460;13.910;2022-12-20T01:50:22;30.65;;;17.30;;
25810;SDS011;13645;52.460;13.910;2022-12-20T01:52:50;30.55;;;16.58;;
25810;SDS011;13645;52.460;13.910;2022-12-20T01:55:21;33.15;;;18.67;;
25810;SDS011;13645;52.460;13.910;2022-12-20T01:57:58;34.70;;;18.13;;
25810;SDS011;13645;52.460;13.910;2022-12-20T02:00:31;30.95;;;16.58;;
25810;SDS011;13645;52.460;13.910;2022-12-20T02:02:58;33.35;;;17.65;;
25810;SDS011;13645;52.460;13.910;2022-12-20T02:05:28;32.03;;;16.05;;
25810;SDS011;13645;52.460;13.910;2022-12-20T02:07:58;32.45;;;17.40;;
25810;SDS011;13645;52.460;13.910;2022-12-20T02:10:26;30.40;;;16.98;;
25810;SDS011;13645;52.460;13.910;2022-12-20T02:13:07;32.78;;;17.23;;
25810;SDS011;13645;52.460;13.910;2022-12-20T02:18:28;33.38;;;17.45;;
25810;SDS011;13645;52.460;13.910;2022-12-20T02:26:55;33.45;;;16.45;;
25810;SDS011;13645;52.460;13.910;2022-12-20T02:29:39;34.33;;;17.17;;
25810;SDS011;13645;52.460;13.910;2022-12-20T02:32:25;35.00;;;17.17;;
25810;SDS011;13645;52.460;13.910;2022-12-20T02:34:58;29.53;;;16.30;;
25810;SDS011;13645;52.460;13.910;2022-12-20T02:37:25;32.22;;;17.00;;
25810;SDS011;13645;52.460;13.910;2022-12-20T02:39:52;30.90;;;16.95;;
25810;SDS011;13645;52.460;13.910;2022-12-20T02:42:20;37.00;;;17.13;;
25810;SDS011;13645;52.460;13.910;2022-12-20T02:45:00;31.77;;;15.75;;
25810;SDS011;13645;52.460;13.910;2022-12-20T02:50:25;30.27;;;15.82;;
25810;SDS011;13645;52.460;13.910;2022-12-20T02:52:55;27.63;;;15.23;;
25810;SDS011;13645;52.460;13.910;2022-12-20T02:55:28;26.50;;;16.02;;
25810;SDS011;13645;52.460;13.910;2022-12-20T02:58:09;27.05;;;15.43;;
25810;SDS011;13645;52.460;13.910;2022-12-20T03:00:43;28.45;;;15.60;;
25810;SDS011;13645;52.460;13.910;2022-12-20T03:03:12;27.67;;;15.85;;
25810;SDS011;13645;52.460;13.910;2022-12-20T03:09:29;29.90;;;16.02;;
25810;SDS011;13645;52.460;13.910;2022-12-20T03:11:57;31.58;;;16.75;;
25810;SDS011;13645;52.460;13.910;2022-12-20T03:14:25;28.75;;;16.13;;
25810;SDS011;13645;52.460;13.910;2022-12-20T03:16:52;27.35;;;15.00;;
25810;SDS011;13645;52.460;13.910;2022-12-20T03:19:19;36.70;;;17.40;;
25810;SDS011;13645;52.460;13.910;2022-12-20T03:21:46;28.83;;;15.35;;
25810;SDS011;13645;52.460;13.910;2022-12-20T03:24:13;28.35;;;15.00;;
25810;SDS011;13645;52.460;13.910;2022-12-20T03:26:40;29.08;;;15.85;;
25810;SDS011;13645;52.460;13.910;2022-12-20T03:29:07;35.15;;;16.40;;
25810;SDS011;13645;52.460;13.910;2022-12-20T03:31:34;29.33;;;15.68;;
25810;SDS011;13645;52.460;13.910;2022-12-20T03:34:01;28.85;;;15.07;;
25810;SDS011;13645;52.460;13.910;2022-12-20T03:36:29;32.47;;;16.77;;
25810;SDS011;13645;52.460;13.910;2022-12-20T03:38:56;26.67;;;15.30;;
25810;SDS011;13645;52.460;13.910;2022-12-20T03:41:22;34.05;;;15.93;;
25810;SDS011;13645;52.460;13.910;2022-12-20T03:43:51;32.90;;;16.55;;
25810;SDS011;13645;52.460;13.910;2022-12-20T03:46:18;28.55;;;15.55;;
25810;SDS011;13645;52.460;13.910;2022-12-20T03:48:45;29.77;;;15.82;;
25810;SDS011;13645;52.460;13.910;2022-12-20T03:51:11;31.23;;;16.02;;
25810;SDS011;13645;52.460;13.910;2022-12-20T03:53:38;26.15;;;15.30;;
25810;SDS011;13645;52.460;13.910;2022-12-20T03:56:05;28.27;;;15.25;;
25810;SDS011;13645;52.460;13.910;2022-12-20T03:58:32;30.70;;;15.85;;
25810;SDS011;13645;52.460;13.910;2022-12-20T04:00:58;29.13;;;15.55;;
25810;SDS011;13645;52.460;13.910;2022-12-20T04:03:25;32.80;;;17.00;;
25810;SDS011;13645;52.460;13.910;2022-12-20T04:05:53;30.50;;;15.57;;
25810;SDS011;13645;52.460;13.910;2022-12-20T04:08:19;26.90;;;14.95;;
25810;SDS011;13645;52.460;13.910;2022-12-20T04:10:46;26.38;;;14.77;;
25810;SDS011;13645;52.460;13.910;2022-12-20T04:13:31;25.05;;;14.52;;
25810;SDS011;13645;52.460;13.910;2022-12-20T04:15:58;26.90;;;14.20;;
25810;SDS011;13645;52.460;13.910;2022-12-20T04:18:26;25.95;;;14.77;;
25810;SDS011;13645;52.460;13.910;2022-12-20T04:20:53;26.33;;;14.18;;
25810;SDS011;13645;52.460;13.910;2022-12-20T04:25:58;27.55;;;14.73;;
25810;SDS011;13645;52.460;13.910;2022-12-20T04:28:25;29.13;;;15.18;;
25810;SDS011;13645;52.460;13.910;2022-12-20T04:30:52;28.65;;;14.05;;
25810;SDS011;13645;52.460;13.910;2022-12-20T04:33:38;25.92;;;13.30;;
25810;SDS011;13645;52.460;13.910;2022-12-20T04:36:05;26.48;;;13.63;;
25810;SDS011;13645;52.460;13.910;2022-12-20T04:38:32;27.90;;;14.00;;
25810;SDS011;13645;52.460;13.910;2022-12-20T04:40:59;30.52;;;15.40;;
25810;SDS011;13645;52.460;13.910;2022-12-20T04:43:26;24.17;;;13.93;;
25810;SDS011;13645;52.460;13.910;2022-12-20T04:45:53;24.42;;;13.32;;
25810;SDS011;13645;52.460;13.910;2022-12-20T04:48:22;26.83;;;13.73;;
25810;SDS011;13645;52.460;13.910;2022-12-20T04:51:12;24.55;;;13.55;;
25810;SDS011;13645;52.460;13.910;2022-12-20T04:53:39;27.02;;;14.90;;
25810;SDS011;13645;52.460;13.910;2022-12-20T04:56:19;26.92;;;14.40;;
25810;SDS011;13645;52.460;13.910;2022-12-20T04:58:48;24.05;;;14.07;;
25810;SDS011;13645;52.460;13.910;2022-12-20T05:01:16;26.40;;;14.55;;
25810;SDS011;13645;52.460;13.910;2022-12-20T05:03:43;26.13;;;13.60;;
25810;SDS011;13645;52.460;13.910;2022-12-20T05:06:10;22.90;;;12.75;;
25810;SDS011;13645;52.460;13.910;2022-12-20T05:08:37;26.80;;;14.07;;
25810;SDS011;13645;52.460;13.910;2022-12-20T05:11:04;25.20;;;13.50;;
25810;SDS011;13645;52.460;13.910;2022-12-20T05:13:32;24.98;;;13.40;;
25810;SDS011;13645;52.460;13.910;2022-12-20T05:15:59;22.33;;;12.82;;
25810;SDS011;13645;52.460;13.910;2022-12-20T05:18:27;26.13;;;13.65;;
25810;SDS011;13645;52.460;13.910;2022-12-20T05:20:55;25.10;;;13.02;;
25810;SDS011;13645;52.460;13.910;2022-12-20T05:23:41;21.42;;;12.52;;
25810;SDS011;13645;52.460;13.910;2022-12-20T05:26:28;27.00;;;12.65;;
25810;SDS011;13645;52.460;13.910;2022-12-20T05:29:01;30.23;;;13.85;;
25810;SDS011;13645;52.460;13.910;2022-12-20T05:31:29;23.20;;;12.75;;
25810;SDS011;13645;52.460;13.910;2022-12-20T05:33:56;20.90;;;12.57;;
25810;SDS011;13645;52.460;13.910;2022-12-20T05:36:22;26.17;;;13.05;;
25810;SDS011;13645;52.460;13.910;2022-12-20T05:38:49;24.75;;;13.25;;
25810;SDS011;13645;52.460;13.910;2022-12-20T05:41:16;20.00;;;11.90;;
25810;SDS011;13645;52.460;13.910;2022-12-20T05:43:43;24.08;;;12.52;;
25810;SDS011;13645;52.460;13.910;2022-12-20T05:46:09;24.52;;;12.82;;
25810;SDS011;13645;52.460;13.910;2022-12-20T05:48:36;23.95;;;12.60;;
25810;SDS011;13645;52.460;13.910;2022-12-20T05:51:03;21.17;;;13.02;;
25810;SDS011;13645;52.460;13.910;2022-12-20T05:53:30;22.55;;;12.88;;
25810;SDS011;13645;52.460;13.910;2022-12-20T05:55:59;22.00;;;11.93;;
25810;SDS011;13645;52.460;13.910;2022-12-20T05:58:26;22.17;;;11.98;;
25810;SDS011;13645;52.460;13.910;2022-12-20T06:00:54;23.80;;;12.65;;
25810;SDS011;13645;52.460;13.910;2022-12-20T06:03:21;24.77;;;12.60;;
25810;SDS011;13645;52.460;13.910;2022-12-20T06:05:48;23.52;;;12.90;;
25810;SDS011;13645;52.460;13.910;2022-12-20T06:08:15;27.50;;;13.38;;
25810;SDS011;13645;52.460;13.910;2022-12-20T06:10:42;29.13;;;14.98;;
25810;SDS011;13645;52.460;13.910;2022-12-20T06:13:08;25.30;;;14.55;;
25810;SDS011;13645;52.460;13.910;2022-12-20T06:15:36;25.73;;;14.00;;
25810;SDS011;13645;52.460;13.910;2022-12-20T06:18:03;24.88;;;12.68;;
25810;SDS011;13645;52.460;13.910;2022-12-20T06:20:31;28.13;;;12.93;;
25810;SDS011;13645;52.460;13.910;2022-12-20T06:22:59;23.98;;;13.23;;
25810;SDS011;13645;52.460;13.910;2022-12-20T06:25:27;26.45;;;12.48;;
25810;SDS011;13645;52.460;13.910;2022-12-20T06:27:54;24.58;;;13.20;;
25810;SDS011;13645;52.460;13.910;2022-12-20T06:30:21;24.17;;;12.55;;
25810;SDS011;13645;52.460;13.910;2022-12-20T06:32:54;22.92;;;12.70;;
25810;SDS011;13645;52.460;13.910;2022-12-20T06:35:22;27.13;;;13.60;;
25810;SDS011;13645;52.460;13.910;2022-12-20T06:37:49;24.00;;;12.65;;
25810;SDS011;13645;52.460;13.910;2022-12-20T06:40:16;25.23;;;12.50;;
25810;SDS011;13645;52.460;13.910;2022-12-20T06:42:43;22.50;;;12.68;;
25810;SDS011;13645;52.460;13.910;2022-12-20T06:45:10;23.48;;;12.05;;
25810;SDS011;13645;52.460;13.910;2022-12-20T06:47:36;22.63;;;12.13;;
25810;SDS011;13645;52.460;13.910;2022-12-20T06:50:04;23.95;;;12.20;;
25810;SDS011;13645;52.460;13.910;2022-12-20T06:52:32;23.80;;;13.15;;
25810;SDS011;13645;52.460;13.910;2022-12-20T06:54:58;23.63;;;12.13;;
25810;SDS011;13645;52.460;13.910;2022-12-20T06:57:25;19.05;;;11.35;;
25810;SDS011;13645;52.460;13.910;2022-12-20T06:59:52;22.85;;;11.50;;
25810;SDS011;13645;52.460;13.910;2022-12-20T07:02:19;24.05;;;11.88;;
25810;SDS011;13645;52.460;13.910;2022-12-20T07:04:45;26.50;;;12.55;;
25810;SDS011;13645;52.460;13.910;2022-12-20T07:07:12;25.75;;;12.23;;
25810;SDS011;13645;52.460;13.910;2022-12-20T07:09:39;25.77;;;12.25;;
25810;SDS011;13645;52.460;13.910;2022-12-20T07:12:08;23.52;;;12.10;;
25810;SDS011;13645;52.460;13.910;2022-12-20T07:14:35;26.35;;;13.00;;
25810;SDS011;13645;52.460;13.910;2022-12-20T07:17:02;25.42;;;12.93;;
25810;SDS011;13645;52.460;13.910;2022-12-20T07:19:30;26.60;;;13.35;;
25810;SDS011;13645;52.460;13.910;2022-12-20T07:21:57;30.35;;;13.55;;
25810;SDS011;13645;52.460;13.910;2022-12-20T07:24:24;23.75;;;13.02;;
25810;SDS011;13645;52.460;13.910;2022-12-20T07:26:51;26.55;;;14.77;;
25810;SDS011;13645;52.460;13.910;2022-12-20T07:29:18;25.45;;;13.73;;
25810;SDS011;13645;52.460;13.910;2022-12-20T07:31:44;28.35;;;14.68;;
25810;SDS011;13645;52.460;13.910;2022-12-20T07:34:11;29.00;;;14.27;;
25810;SDS011;13645;52.460;13.910;2022-12-20T07:36:38;27.45;;;14.15;;
25810;SDS011;13645;52.460;13.910;2022-12-20T07:39:05;25.67;;;14.30;;
25810;SDS011;13645;52.460;13.910;2022-12-20T07:41:32;27.17;;;15.10;;
25810;SDS011;13645;52.460;13.910;2022-12-20T07:43:59;32.08;;;15.07;;
25810;SDS011;13645;52.460;13.910;2022-12-20T07:46:25;29.25;;;13.93;;
25810;SDS011;13645;52.460;13.910;2022-12-20T07:48:53;33.08;;;15.75;;
25810;SDS011;13645;52.460;13.910;2022-12-20T07:51:22;29.90;;;15.13;;
25810;SDS011;13645;52.460;13.910;2022-12-20T07:53:53;31.73;;;15.18;;
25810;SDS011;13645;52.460;13.910;2022-12-20T07:56:29;31.67;;;15.32;;
25810;SDS011;13645;52.460;13.910;2022-12-20T07:59:06;28.27;;;15.10;;
25810;SDS011;13645;52.460;13.910;2022-12-20T08:01:34;25.73;;;14.35;;
25810;SDS011;13645;52.460;13.910;2022-12-20T08:04:03;31.48;;;15.00;;
25810;SDS011;13645;52.460;13.910;2022-12-20T08:06:35;29.48;;;15.63;;
25810;SDS011;13645;52.460;13.910;2022-12-20T08:09:04;28.42;;;15.07;;
25810;SDS011;13645;52.460;13.910;2022-12-20T08:11:32;24.42;;;13.48;;
25810;SDS011;13645;52.460;13.910;2022-12-20T08:14:03;31.00;;;15.60;;
25810;SDS011;13645;52.460;13.910;2022-12-20T08:16:31;29.77;;;16.38;;
25810;SDS011;13645;52.460;13.910;2022-12-20T08:18:58;35.63;;;16.30;;
25810;SDS011;13645;52.460;13.910;2022-12-20T08:21:25;33.67;;;15.77;;
25810;SDS011;13645;52.460;13.910;2022-12-20T08:23:52;32.75;;;16.17;;
25810;SDS011;13645;52.460;13.910;2022-12-20T08:26:19;32.50;;;15.55;;
25810;SDS011;13645;52.460;13.910;2022-12-20T08:28:45;32.78;;;16.63;;
25810;SDS011;13645;52.460;13.910;2022-12-20T08:31:12;33.00;;;15.55;;
25810;SDS011;13645;52.460;13.910;2022-12-20T08:33:39;32.50;;;16.38;;
25810;SDS011;13645;52.460;13.910;2022-12-20T08:36:08;32.53;;;16.90;;
25810;SDS011;13645;52.460;13.910;2022-12-20T08:38:37;37.03;;;15.90;;
25810;SDS011;13645;52.460;13.910;2022-12-20T08:41:11;33.53;;;16.52;;
25810;SDS011;13645;52.460;13.910;2022-12-20T08:43:41;31.95;;;15.95;;
25810;SDS011;13645;52.460;13.910;2022-12-20T08:46:08;30.23;;;16.80;;
25810;SDS011;13645;52.460;13.910;2022-12-20T08:48:37;36.17;;;16.33;;
25810;SDS011;13645;52.460;13.910;2022-12-20T08:51:05;34.63;;;17.90;;
25810;SDS011;13645;52.460;13.910;2022-12-20T08:53:34;36.92;;;17.35;;
25810;SDS011;13645;52.460;13.910;2022-12-20T08:56:06;36.88;;;16.30;;
25810;SDS011;13645;52.460;13.910;2022-12-20T08:58:37;38.70;;;16.40;;
25810;SDS011;13645;52.460;13.910;2022-12-20T09:01:05;40.17;;;18.05;;
25810;SDS011;13645;52.460;13.910;2022-12-20T09:03:34;36.28;;;17.40;;
25810;SDS011;13645;52.460;13.910;2022-12-20T09:06:05;36.90;;;17.13;;
25810;SDS011;13645;52.460;13.910;2022-12-20T09:08:34;33.55;;;17.23;;
25810;SDS011;13645;52.460;13.910;2022-12-20T09:11:02;35.05;;;16.55;;
25810;SDS011;13645;52.460;13.910;2022-12-20T09:13:34;35.88;;;17.30;;
25810;SDS011;13645;52.460;13.910;2022-12-20T09:16:09;31.95;;;15.95;;
25810;SDS011;13645;52.460;13.910;2022-12-20T09:18:38;36.72;;;16.50;;
25810;SDS011;13645;52.460;13.910;2022-12-20T09:21:06;34.97;;;17.58;;
25810;SDS011;13645;52.460;13.910;2022-12-20T09:23:33;36.58;;;17.63;;
25810;SDS011;13645;52.460;13.910;2022-12-20T09:26:02;40.78;;;18.92;;
25810;SDS011;13645;52.460;13.910;2022-12-20T09:28:30;36.25;;;17.25;;
25810;SDS011;13645;52.460;13.910;2022-12-20T09:30:58;36.50;;;18.25;;
25810;SDS011;13645;52.460;13.910;2022-12-20T09:33:29;33.50;;;17.08;;
25810;SDS011;13645;52.460;13.910;2022-12-20T09:35:58;41.70;;;18.30;;
25810;SDS011;13645;52.460;13.910;2022-12-20T09:38:26;35.47;;;17.95;;
25810;SDS011;13645;52.460;13.910;2022-12-20T09:40:55;40.92;;;17.50;;
25810;SDS011;13645;52.460;13.910;2022-12-20T09:43:24;34.88;;;17.92;;
25810;SDS011;13645;52.460;13.910;2022-12-20T09:45:56;38.55;;;17.48;;
25810;SDS011;13645;52.460;13.910;2022-12-20T09:48:26;34.22;;;17.23;;
25810;SDS011;13645;52.460;13.910;2022-12-20T09:53:42;33.38;;;17.50;;
25810;SDS011;13645;52.460;13.910;2022-12-20T09:56:34;34.22;;;18.33;;
25810;SDS011;13645;52.460;13.910;2022-12-20T09:59:03;36.88;;;17.83;;
25810;SDS011;13645;52.460;13.910;2022-12-20T10:01:38;42.45;;;19.02;;
25810;SDS011;13645;52.460;13.910;2022-12-20T10:04:26;36.17;;;17.65;;
25810;SDS011;13645;52.460;13.910;2022-12-20T10:17:57;39.15;;;18.38;;
25810;SDS011;13645;52.460;13.910;2022-12-20T10:21:04;39.40;;;17.67;;
25810;SDS011;13645;52.460;13.910;2022-12-20T10:26:33;39.03;;;18.88;;
25810;SDS011;13645;52.460;13.910;2022-12-20T10:29:00;32.28;;;17.27;;
25810;SDS011;13645;52.460;13.910;2022-12-20T10:31:27;36.13;;;17.73;;
25810;SDS011;13645;52.460;13.910;2022-12-20T10:33:54;36.53;;;17.63;;
25810;SDS011;13645;52.460;13.910;2022-12-20T10:36:22;36.15;;;18.10;;
25810;SDS011;13645;52.460;13.910;2022-12-20T10:38:55;36.75;;;17.23;;
25810;SDS011;13645;52.460;13.910;2022-12-20T10:41:27;33.60;;;17.30;;
25810;SDS011;13645;52.460;13.910;2022-12-20T10:44:00;31.50;;;16.70;;
25810;SDS011;13645;52.460;13.910;2022-12-20T10:46:40;35.38;;;17.75;;
25810;SDS011;13645;52.460;13.910;2022-12-20T10:52:07;37.05;;;18.45;;
25810;SDS011;13645;52.460;13.910;2022-12-20T10:54:41;31.30;;;16.40;;
25810;SDS011;13645;52.460;13.910;2022-12-20T10:57:15;33.47;;;17.65;;
25810;SDS011;13645;52.460;13.910;2022-12-20T11:07:35;33.28;;;17.48;;
25810;SDS011;13645;52.460;13.910;2022-12-20T11:10:39;33.15;;;16.58;;
25810;SDS011;13645;52.460;13.910;2022-12-20T11:13:09;28.30;;;15.27;;
25810;SDS011;13645;52.460;13.910;2022-12-20T11:15:49;29.45;;;16.15;;
25810;SDS011;13645;52.460;13.910;2022-12-20T11:21:02;30.95;;;15.70;;
25810;SDS011;13645;52.460;13.910;2022-12-20T11:29:32;28.60;;;15.13;;
25810;SDS011;13645;52.460;13.910;2022-12-20T11:40:49;29.83;;;16.00;;
25810;SDS011;13645;52.460;13.910;2022-12-20T11:52:59;26.35;;;15.55;;
25810;SDS011;13645;52.460;13.910;2022-12-20T11:55:35;30.70;;;15.32;;
25810;SDS011;13645;52.460;13.910;2022-12-20T12:00:50;29.88;;;14.85;;
25810;SDS011;13645;52.460;13.910;2022-12-20T12:03:29;26.35;;;13.93;;
25810;SDS011;13645;52.460;13.910;2022-12-20T12:06:15;22.63;;;13.38;;
25810;SDS011;13645;52.460;13.910;2022-12-20T12:08:48;24.77;;;14.65;;
25810;SDS011;13645;52.460;13.910;2022-12-20T12:11:26;24.88;;;13.32;;
25810;SDS011;13645;52.460;13.910;2022-12-20T12:14:21;25.20;;;13.63;;
25810;SDS011;13645;52.460;13.910;2022-12-20T12:16:56;26.70;;;14.48;;
25810;SDS011;13645;52.460;13.910;2022-12-20T12:19:30;24.10;;;13.98;;
25810;SDS011;13645;52.460;13.910;2022-12-20T12:22:00;25.17;;;15.63;;
25810;SDS011;13645;52.460;13.910;2022-12-20T12:24:34;27.40;;;14.57;;
25810;SDS011;13645;52.460;13.910;2022-12-20T12:27:20;24.27;;;14.10;;
25810;SDS011;13645;52.460;13.910;2022-12-20T12:29:52;24.08;;;13.90;;
25810;SDS011;13645;52.460;13.910;2022-12-20T12:32:24;23.17;;;13.50;;
25810;SDS011;13645;52.460;13.910;2022-12-20T12:35:22;22.55;;;13.25;;
25810;SDS011;13645;52.460;13.910;2022-12-20T12:40:56;25.45;;;14.23;;
25810;SDS011;13645;52.460;13.910;2022-12-20T12:43:54;22.48;;;13.38;;
25810;SDS011;13645;52.460;13.910;2022-12-20T12:46:46;23.45;;;14.30;;
25810;SDS011;13645;52.460;13.910;2022-12-20T12:49:21;28.83;;;14.38;;
25810;SDS011;13645;52.460;13.910;2022-12-20T12:51:50;28.20;;;15.27;;
25810;SDS011;13645;52.460;13.910;2022-12-20T12:54:23;27.75;;;15.20;;
25810;SDS011;13645;52.460;13.910;2022-12-20T12:56:59;28.85;;;15.57;;
25810;SDS011;13645;52.460;13.910;2022-12-20T13:04:30;25.10;;;14.50;;
25810;SDS011;13645;52.460;13.910;2022-12-20T13:07:29;26.02;;;14.38;;
25810;SDS011;13645;52.460;13.910;2022-12-20T13:18:00;28.80;;;14.85;;
25810;SDS011;13645;52.460;13.910;2022-12-20T13:23:29;25.27;;;13.77;;
25810;SDS011;13645;52.460;13.910;2022-12-20T13:25:55;30.63;;;14.82;;
25810;SDS011;13645;52.460;13.910;2022-12-20T13:46:42;30.27;;;15.13;;
25810;SDS011;13645;52.460;13.910;2022-12-20T13:49:31;26.55;;;15.30;;
25810;SDS011;13645;52.460;13.910;2022-12-20T13:52:17;29.20;;;15.38;;
25810;SDS011;13645;52.460;13.910;2022-12-20T13:54:54;28.35;;;15.63;;
25810;SDS011;13645;52.460;13.910;2022-12-20T13:57:31;27.67;;;14.43;;
25810;SDS011;13645;52.460;13.910;2022-12-20T14:00:11;29.70;;;15.05;;
25810;SDS011;13645;52.460;13.910;2022-12-20T14:02:42;29.33;;;15.57;;
25810;SDS011;13645;52.460;13.910;2022-12-20T14:05:14;26.80;;;15.63;;
25810;SDS011;13645;52.460;13.910;2022-12-20T14:07:45;27.35;;;15.95;;
25810;SDS011;13645;52.460;13.910;2022-12-20T14:10:19;30.77;;;15.80;;
25810;SDS011;13645;52.460;13.910;2022-12-20T14:12:50;28.17;;;16.00;;
25810;SDS011;13645;52.460;13.910;2022-12-20T14:15:23;32.78;;;15.90;;
25810;SDS011;13645;52.460;13.910;2022-12-20T14:20:48;30.75;;;15.85;;
25810;SDS011;13645;52.460;13.910;2022-12-20T14:23:19;31.75;;;16.83;;
25810;SDS011;13645;52.460;13.910;2022-12-20T14:25:55;30.52;;;16.08;;
25810;SDS011;13645;52.460;13.910;2022-12-20T14:31:03;30.50;;;16.58;;
25810;SDS011;13645;52.460;13.910;2022-12-20T14:33:38;31.88;;;16.20;;
25810;SDS011;13645;52.460;13.910;2022-12-20T14:38:42;29.88;;;16.60;;
25810;SDS011;13645;52.460;13.910;2022-12-20T14:46:33;32.28;;;16.98;;
25810;SDS011;13645;52.460;13.910;2022-12-20T14:49:43;29.63;;;16.15;;
25810;SDS011;13645;52.460;13.910;2022-12-20T14:54:47;32.15;;;15.93;;
25810;SDS011;13645;52.460;13.910;2022-12-20T14:57:41;27.73;;;15.00;;
25810;SDS011;13645;52.460;13.910;2022-12-20T15:08:19;28.48;;;16.27;;
25810;SDS011;13645;52.460;13.910;2022-12-20T15:11:26;30.95;;;17.00;;
25810;SDS011;13645;52.460;13.910;2022-12-20T15:13:48;31.35;;;16.65;;
25810;SDS011;13645;52.460;13.910;2022-12-20T15:16:20;31.50;;;16.73;;
25810;SDS011;13645;52.460;13.910;2022-12-20T15:18:50;29.67;;;16.10;;
25810;SDS011;13645;52.460;13.910;2022-12-20T15:21:33;28.40;;;16.15;;
25810;SDS011;13645;52.460;13.910;2022-12-20T15:24:04;33.08;;;16.67;;
25810;SDS011;13645;52.460;13.910;2022-12-20T15:26:35;31.52;;;16.42;;
25810;SDS011;13645;52.460;13.910;2022-12-20T15:29:02;31.60;;;16.88;;
25810;SDS011;13645;52.460;13.910;2022-12-20T15:31:31;33.38;;;17.30;;
25810;SDS011;13645;52.460;13.910;2022-12-20T15:34:00;29.20;;;16.80;;
25810;SDS011;13645;52.460;13.910;2022-12-20T15:36:31;30.98;;;17.50;;
25810;SDS011;13645;52.460;13.910;2022-12-20T15:38:59;34.00;;;17.02;;
25810;SDS011;13645;52.460;13.910;2022-12-20T15:41:39;33.28;;;17.10;;
25810;SDS011;13645;52.460;13.910;2022-12-20T15:44:15;29.80;;;16.73;;
25810;SDS011;13645;52.460;13.910;2022-12-20T15:46:45;33.65;;;17.48;;
25810;SDS011;13645;52.460;13.910;2022-12-20T15:49:17;33.03;;;20.23;;
25810;SDS011;13645;52.460;13.910;2022-12-20T15:51:46;31.58;;;16.30;;
25810;SDS011;13645;52.460;13.910;2022-12-20T15:56:47;33.30;;;16.23;;
25810;SDS011;13645;52.460;13.910;2022-12-20T15:59:14;31.00;;;17.10;;
25810;SDS011;13645;52.460;13.910;2022-12-20T16:02:01;27.98;;;16.33;;
25810;SDS011;13645;52.460;13.910;2022-12-20T16:04:28;33.83;;;16.88;;
25810;SDS011;13645;52.460;13.910;2022-12-20T16:06:55;34.17;;;17.20;;
25810;SDS011;13645;52.460;13.910;2022-12-20T16:09:22;34.10;;;17.52;;
25810;SDS011;13645;52.460;13.910;2022-12-20T16:11:51;34.03;;;17.60;;
25810;SDS011;13645;52.460;13.910;2022-12-20T16:14:19;31.20;;;16.60;;
25810;SDS011;13645;52.460;13.910;2022-12-20T16:16:46;32.65;;;16.80;;
25810;SDS011;13645;52.460;13.910;2022-12-20T16:19:15;35.83;;;18.00;;
25810;SDS011;13645;52.460;13.910;2022-12-20T16:24:11;33.38;;;19.15;;
25810;SDS011;13645;52.460;13.910;2022-12-20T16:26:39;32.88;;;18.17;;
25810;SDS011;13645;52.460;13.910;2022-12-20T16:29:07;35.50;;;18.23;;
25810;SDS011;13645;52.460;13.910;2022-12-20T16:31:34;30.13;;;16.83;;
25810;SDS011;13645;52.460;13.910;2022-12-20T16:34:06;29.75;;;16.50;;
25810;SDS011;13645;52.460;13.910;2022-12-20T16:36:38;30.90;;;16.65;;
25810;SDS011;13645;52.460;13.910;2022-12-20T16:39:04;32.88;;;18.33;;
25810;SDS011;13645;52.460;13.910;2022-12-20T16:41:32;34.80;;;17.45;;
25810;SDS011;13645;52.460;13.910;2022-12-20T16:43:59;31.70;;;16.85;;
25810;SDS011;13645;52.460;13.910;2022-12-20T16:46:27;35.40;;;18.27;;
25810;SDS011;13645;52.460;13.910;2022-12-20T16:48:56;31.83;;;17.67;;
25810;SDS011;13645;52.460;13.910;2022-12-20T16:53:52;35.13;;;18.27;;
25810;SDS011;13645;52.460;13.910;2022-12-20T16:56:42;32.38;;;17.38;;
25810;SDS011;13645;52.460;13.910;2022-12-20T16:59:10;33.70;;;18.05;;